Carnival Victory — 3FFL8 — position and weather

sailwx.info

Track history (hours):
 
Tides and Currents Weather Stations Pressure Air Temp Water Temp Dewpoint Dewpoint Depression Visibility Wind Speed Wind Dir Waves Ship Positions

Carnival Victory

Operator: Carnival Cruise Lines

Last reported at 2014-Sep-16 09:00 UTC. Time now 2014-Sep-16 19:30 UTC.
Position N 25°36' W 076°36'.

Type: Ship. MMSI: 355263000.

Wind from 030 at 7 knots

Waves 1.5 meters (5 feet), 3 second period

Barometer 1015.0 mb
Air temperature 27.0 ° C
Dewpoint 24.0 ° C
Water temperature 31.0 ° C

Date/timePositionNaut miles runAvg speedWind from/ knotsBaromVisibWave heightAir tempDewpointWater temp
2014-Sep-16 09:00N 25°36' W 076°36'8117.8 030 / 71015.0 1.527.024.031.0
2014-Sep-16 04:27N 25°59' W 078°02'2017.7
2014-Sep-16 03:19N 26°06' W 078°23'1516.9
2014-Sep-16 02:26N 26°10' W 078°39'2016.1
2014-Sep-16 01:12N 26°17' W 079°00'914.8
2014-Sep-16 00:33N 26°16' W 079°11'1716.7
2014-Sep-15 23:33N 26°07' W 079°26'1817.8
2014-Sep-15 22:33N 25°58' W 079°43'1818.2
2014-Sep-15 21:33N 25°48' W 080°00'9 8.8
2014-Sep-15 20:32N 25°47' W 080°10'0 0.0
2014-Sep-15 19:31N 25°47' W 080°10'0 0.0
2014-Sep-15 18:22N 25°47' W 080°10'0 0.0
2014-Sep-15 17:33N 25°47' W 080°10'0 0.0
2014-Sep-15 16:21N 25°47' W 080°10'0 0.0
2014-Sep-15 15:30N 25°47' W 080°10'0 0.0
2014-Sep-15 14:29N 25°47' W 080°10'0 0.0
2014-Sep-15 13:32N 25°47' W 080°10'0 0.0
2014-Sep-15 12:31N 25°47' W 080°10'0 0.0
2014-Sep-15 11:29N 25°47' W 080°10'1 1.1
2014-Sep-15 10:33N 25°46' W 080°09'8 7.9
2014-Sep-15 09:33N 25°43' W 080°01'1414.1
2014-Sep-15 08:33N 25°30' W 079°57'49016.3
2014-Sep-14 02:33N 20°30' W 086°59'2 1.7
2014-Sep-14 01:33N 20°29' W 086°59'0 0.0
2014-Sep-13 21:31N 20°29' W 086°59'0 0.0
2014-Sep-13 20:31N 20°29' W 086°59'0 0.0
2014-Sep-13 19:24N 20°29' W 086°59'0 0.0
2014-Sep-13 18:30N 20°29' W 086°59'0 0.0
2014-Sep-13 17:29N 20°29' W 086°59'0 0.0
2014-Sep-13 16:33N 20°29' W 086°59'41011.9
2014-Sep-12 06:00N 24°30' W 081°00'5512.1 080 / 141013.010.8 0.527.024.031.0
2014-Sep-12 01:28N 24°57' W 080°07'1213.4
2014-Sep-12 00:33N 25°08' W 080°04'1413.5
2014-Sep-11 23:33N 25°22' W 080°02'1313.1
2014-Sep-11 22:33N 25°35' W 080°01'1111.4
2014-Sep-11 21:33N 25°46' W 080°04'6 4.6
2014-Sep-11 20:19N 25°47' W 080°10'0 0.0
2014-Sep-11 19:31N 25°47' W 080°10'0 0.0
2014-Sep-11 18:24N 25°47' W 080°10'0 0.0
2014-Sep-11 17:33N 25°47' W 080°10'0 0.0
2014-Sep-11 16:26N 25°47' W 080°10'0 0.0
2014-Sep-11 15:32N 25°47' W 080°10'0 0.0
2014-Sep-11 14:28N 25°47' W 080°10'0 0.0
2014-Sep-11 13:22N 25°47' W 080°10'0 0.0
2014-Sep-11 12:31N 25°47' W 080°10'0 0.0
2014-Sep-11 11:31N 25°47' W 080°10'1 1.0
2014-Sep-11 10:33N 25°46' W 080°09'8 8.2
2014-Sep-11 09:33N 25°43' W 080°01'1212.1
2014-Sep-11 08:33N 25°31' W 079°57'13015.2
2014-Sep-11 00:00N 23°48' W 081°24'23616.8 070 / 121012.0 2.027.623.030.6
2014-Sep-10 10:00N 21°42' W 085°00'8220.6 170 / 71010.010.8 1.527.623.031.0
2014-Sep-10 06:00N 20°54' W 083°48'196 9.8 120 / 211010.010.8 1.024.023.031.0
2014-Sep-09 10:00N 19°06' W 080°54'6415.9 060 / 101011.0 2.027.524.030.7
2014-Sep-09 06:00N 18°54' W 079°48'13319.0 100 / 201011.010.8 1.028.025.030.0
2014-Sep-08 23:00N 18°30' W 077°30'72 5.6 090 / 181010.0 2.2 2.527.524.030.8
2014-Sep-08 10:00N 18°54' W 076°18'146 9.1 120 / 111011.0 2.2 3.024.619.030.3
2014-Sep-07 18:00N 21°18' W 075°54'15519.3 230 / 231012.010.8 2.029.026.031.0
2014-Sep-07 10:00N 22°36' W 078°18'19418.6 010 / 91012.010.8 1.526.523.030.5
2014-Sep-06 23:33N 25°29' W 079°55'1616.5
2014-Sep-06 22:33N 25°44' W 080°01'8 8.3
2014-Sep-06 21:33N 25°47' W 080°10'0 0.1
2014-Sep-06 20:31N 25°47' W 080°10'0 0.0
2014-Sep-06 19:27N 25°47' W 080°10'0 0.0
2014-Sep-06 18:33N 25°47' W 080°10'0 0.0
2014-Sep-06 17:30N 25°47' W 080°10'0 0.0
2014-Sep-06 16:20N 25°47' W 080°10'0 0.0
2014-Sep-06 15:32N 25°47' W 080°10'0 0.0
2014-Sep-06 14:22N 25°47' W 080°10'0 0.0
2014-Sep-06 13:31N 25°47' W 080°10'0 0.0
2014-Sep-06 12:27N 25°47' W 080°10'0 0.0
2014-Sep-06 11:33N 25°47' W 080°10'5 5.3
2014-Sep-06 10:33N 25°46' W 080°05'1312.9
2014-Sep-06 09:33N 25°53' W 079°52'  
Track history (hours):
 
Tides and Currents Weather Stations Pressure Air Temp Water Temp Dewpoint Dewpoint Depression Visibility Wind Speed Wind Dir Waves Ship Positions

Carnival Victory

Operator: Carnival Cruise Lines

Last reported at 2014-Sep-16 09:00 UTC. Time now 2014-Sep-16 19:30 UTC.
Position N 25°36' W 076°36'.

Type: Ship. MMSI: 355263000.

Wind from 030 at 7 knots

Waves 1.5 meters (5 feet), 3 second period

Barometer 1015.0 mb
Air temperature 27.0 ° C
Dewpoint 24.0 ° C
Water temperature 31.0 ° C

Date/timePositionNaut miles runAvg speedWind from/ knotsBaromVisibWave heightAir tempDewpointWater temp
2014-Sep-16 09:00N 25°36' W 076°36'8117.8 030 / 71015.0 1.527.024.031.0
2014-Sep-16 04:27N 25°59' W 078°02'2017.7
2014-Sep-16 03:19N 26°06' W 078°23'1516.9
2014-Sep-16 02:26N 26°10' W 078°39'2016.1
2014-Sep-16 01:12N 26°17' W 079°00'914.8
2014-Sep-16 00:33N 26°16' W 079°11'1716.7
2014-Sep-15 23:33N 26°07' W 079°26'1817.8
2014-Sep-15 22:33N 25°58' W 079°43'1818.2
2014-Sep-15 21:33N 25°48' W 080°00'9 8.8
2014-Sep-15 20:32N 25°47' W 080°10'0 0.0
2014-Sep-15 19:31N 25°47' W 080°10'0 0.0
2014-Sep-15 18:22N 25°47' W 080°10'0 0.0
2014-Sep-15 17:33N 25°47' W 080°10'0 0.0
2014-Sep-15 16:21N 25°47' W 080°10'0 0.0
2014-Sep-15 15:30N 25°47' W 080°10'0 0.0
2014-Sep-15 14:29N 25°47' W 080°10'0 0.0
2014-Sep-15 13:32N 25°47' W 080°10'0 0.0
2014-Sep-15 12:31N 25°47' W 080°10'0 0.0
2014-Sep-15 11:29N 25°47' W 080°10'1 1.1
2014-Sep-15 10:33N 25°46' W 080°09'8 7.9
2014-Sep-15 09:33N 25°43' W 080°01'1414.1
2014-Sep-15 08:33N 25°30' W 079°57'49016.3
2014-Sep-14 02:33N 20°30' W 086°59'2 1.7
2014-Sep-14 01:33N 20°29' W 086°59'0 0.0
2014-Sep-13 21:31N 20°29' W 086°59'0 0.0
2014-Sep-13 20:31N 20°29' W 086°59'0 0.0
2014-Sep-13 19:24N 20°29' W 086°59'0 0.0
2014-Sep-13 18:30N 20°29' W 086°59'0 0.0
2014-Sep-13 17:29N 20°29' W 086°59'0 0.0
2014-Sep-13 16:33N 20°29' W 086°59'41011.9
2014-Sep-12 06:00N 24°30' W 081°00'5512.1 080 / 141013.010.8 0.527.024.031.0
2014-Sep-12 01:28N 24°57' W 080°07'1213.4
2014-Sep-12 00:33N 25°08' W 080°04'1413.5
2014-Sep-11 23:33N 25°22' W 080°02'1313.1
2014-Sep-11 22:33N 25°35' W 080°01'1111.4
2014-Sep-11 21:33N 25°46' W 080°04'6 4.6
2014-Sep-11 20:19N 25°47' W 080°10'0 0.0
2014-Sep-11 19:31N 25°47' W 080°10'0 0.0
2014-Sep-11 18:24N 25°47' W 080°10'0 0.0
2014-Sep-11 17:33N 25°47' W 080°10'0 0.0
2014-Sep-11 16:26N 25°47' W 080°10'0 0.0
2014-Sep-11 15:32N 25°47' W 080°10'0 0.0
2014-Sep-11 14:28N 25°47' W 080°10'0 0.0
2014-Sep-11 13:22N 25°47' W 080°10'0 0.0
2014-Sep-11 12:31N 25°47' W 080°10'0 0.0
2014-Sep-11 11:31N 25°47' W 080°10'1 1.0
2014-Sep-11 10:33N 25°46' W 080°09'8 8.2
2014-Sep-11 09:33N 25°43' W 080°01'1212.1
2014-Sep-11 08:33N 25°31' W 079°57'13015.2
2014-Sep-11 00:00N 23°48' W 081°24'23616.8 070 / 121012.0 2.027.623.030.6
2014-Sep-10 10:00N 21°42' W 085°00'8220.6 170 / 71010.010.8 1.527.623.031.0
2014-Sep-10 06:00N 20°54' W 083°48'196 9.8 120 / 211010.010.8 1.024.023.031.0
2014-Sep-09 10:00N 19°06' W 080°54'6415.9 060 / 101011.0 2.027.524.030.7
2014-Sep-09 06:00N 18°54' W 079°48'13319.0 100 / 201011.010.8 1.028.025.030.0
2014-Sep-08 23:00N 18°30' W 077°30'72 5.6 090 / 181010.0 2.2 2.527.524.030.8
2014-Sep-08 10:00N 18°54' W 076°18'146 9.1 120 / 111011.0 2.2 3.024.619.030.3
2014-Sep-07 18:00N 21°18' W 075°54'15519.3 230 / 231012.010.8 2.029.026.031.0
2014-Sep-07 10:00N 22°36' W 078°18'19418.6 010 / 91012.010.8 1.526.523.030.5
2014-Sep-06 23:33N 25°29' W 079°55'1616.5
2014-Sep-06 22:33N 25°44' W 080°01'8 8.3
2014-Sep-06 21:33N 25°47' W 080°10'0 0.1
2014-Sep-06 20:31N 25°47' W 080°10'0 0.0
2014-Sep-06 19:27N 25°47' W 080°10'0 0.0
2014-Sep-06 18:33N 25°47' W 080°10'0 0.0
2014-Sep-06 17:30N 25°47' W 080°10'0 0.0
2014-Sep-06 16:20N 25°47' W 080°10'0 0.0
2014-Sep-06 15:32N 25°47' W 080°10'0 0.0
2014-Sep-06 14:22N 25°47' W 080°10'0 0.0
2014-Sep-06 13:31N 25°47' W 080°10'0 0.0
2014-Sep-06 12:27N 25°47' W 080°10'0 0.0
2014-Sep-06 11:33N 25°47' W 080°10'5 5.3
2014-Sep-06 10:33N 25°46' W 080°05'1312.9
2014-Sep-06 09:33N 25°53' W 079°52'  

Dump ship's entire track history